createdAt,value
2023-02-11T00:00:26.942Z,148.04
2023-02-11T00:01:26.928Z,149.91
2023-02-11T00:02:26.988Z,151.27
2023-02-11T00:03:26.942Z,155.37
2023-02-11T00:04:26.888Z,156.54
2023-02-11T00:05:26.893Z,160.32
2023-02-11T00:06:26.858Z,161.09
2023-02-11T00:07:26.863Z,161.41
2023-02-11T00:08:26.829Z,167.42
2023-02-11T00:09:26.832Z,161.56
2023-02-11T00:10:26.811Z,155.37
2023-02-11T00:11:26.861Z,152.80
2023-02-11T00:12:26.793Z,150.86
2023-02-11T00:13:26.765Z,150.59
2023-02-11T00:14:26.793Z,149.37
2023-02-11T00:15:26.748Z,148.70
2023-02-11T00:16:26.818Z,147.12
2023-02-11T00:17:26.728Z,146.73
2023-02-11T00:18:26.736Z,144.94
2023-02-11T00:19:26.718Z,147.78
2023-02-11T00:20:26.691Z,149.10
2023-02-11T00:21:26.685Z,149.37
2023-02-11T00:22:26.661Z,142.58
2023-02-11T00:23:26.651Z,142.21
2023-02-11T00:24:26.640Z,142.95
2023-02-11T00:25:26.621Z,142.34
2023-02-11T00:26:26.606Z,141.73
2023-02-11T00:27:26.595Z,136.72
2023-02-11T00:28:26.666Z,136.27
2023-02-11T00:29:26.740Z,136.38
2023-02-11T00:30:26.585Z,137.62
2023-02-11T00:31:26.748Z,139.12
2023-02-11T00:32:26.560Z,140.89
2023-02-11T00:33:26.530Z,139.94
2023-02-11T00:34:26.541Z,141.25
2023-02-11T00:35:26.495Z,143.81
2023-02-11T00:36:26.480Z,143.57
2023-02-11T00:37:26.471Z,142.09
2023-02-11T00:38:26.455Z,142.58
2023-02-11T00:39:26.468Z,140.29
2023-02-11T00:40:26.488Z,139.24
2023-02-11T00:41:26.432Z,129.48
2023-02-11T00:42:26.412Z,117.74
2023-02-11T00:43:26.389Z,108.09
2023-02-11T00:44:26.375Z,100.03
2023-02-11T00:45:26.382Z,95.51
2023-02-11T00:46:26.431Z,92.74
2023-02-11T00:47:26.342Z,91.81
2023-02-11T00:48:26.335Z,93.26
2023-02-11T00:49:26.322Z,89.35
2023-02-11T00:50:26.315Z,86.92
2023-02-11T00:51:26.323Z,87.93
2023-02-11T00:52:26.272Z,89.06
2023-02-11T00:53:26.276Z,89.35
2023-02-11T00:54:28.423Z,88.96
2023-02-11T00:55:26.285Z,92.22
2023-02-11T00:56:26.236Z,94.25
2023-02-11T00:57:26.218Z,98.90
2023-02-11T00:58:26.199Z,101.81
2023-02-11T00:59:26.192Z,102.43
2023-02-11T01:00:26.177Z,108.09
2023-02-11T01:01:26.329Z,115.69
2023-02-11T01:02:26.159Z,123.33
2023-02-11T01:03:26.209Z,132.05
2023-02-11T01:04:26.123Z,140.65
2023-02-11T01:05:26.137Z,143.94
2023-02-11T01:06:26.115Z,147.65
2023-02-11T01:07:26.098Z,147.78
2023-02-11T01:08:26.111Z,151.83
2023-02-11T01:09:26.121Z,162.20
2023-02-11T01:10:26.049Z,166.58
2023-02-11T01:11:26.070Z,169.82
2023-02-11T01:12:26.066Z,171.21
2023-02-11T01:13:26.066Z,172.46
2023-02-11T01:14:26.007Z,174.45
2023-02-11T01:15:26.007Z,182.49
2023-02-11T01:16:26.037Z,192.89
2023-02-11T01:17:26.045Z,199.36
2023-02-11T01:18:26.028Z,201.82
2023-02-11T01:19:25.951Z,203.07
2023-02-11T01:20:25.945Z,207.72
2023-02-11T01:21:25.936Z,210.26
2023-02-11T01:22:25.908Z,213.97
2023-02-11T01:23:25.902Z,213.55
2023-02-11T01:24:25.887Z,211.07
2023-02-11T01:25:25.877Z,212.30
2023-02-11T01:26:25.880Z,212.72
2023-02-11T01:27:25.868Z,205.63
2023-02-11T01:28:25.901Z,196.01
2023-02-11T01:29:25.834Z,188.98
2023-02-11T01:30:25.834Z,197.07
2023-02-11T01:31:25.919Z,204.34
2023-02-11T01:32:25.778Z,206.15
2023-02-11T01:33:25.801Z,209.85
2023-02-11T01:34:25.771Z,216.38
2023-02-11T01:35:25.748Z,216.67
2023-02-11T01:36:25.756Z,226.42
2023-02-11T01:37:25.720Z,233.54
2023-02-11T01:38:25.726Z,231.06
2023-02-11T01:39:25.696Z,226.42
2023-02-11T01:40:25.701Z,231.72
2023-02-11T01:41:25.680Z,236.93
2023-02-11T01:42:25.655Z,238.48
2023-02-11T01:43:25.653Z,239.35
2023-02-11T01:44:25.647Z,243.64
2023-02-11T01:45:25.624Z,236.75
2023-02-11T01:46:25.714Z,243.64
2023-02-11T01:47:25.592Z,246.21
2023-02-11T01:48:25.586Z,255.24
2023-02-11T01:49:25.752Z,260.32
2023-02-11T01:50:25.558Z,263.05
2023-02-11T01:51:25.590Z,262.41
2023-02-11T01:52:25.550Z,263.26
2023-02-11T01:53:25.528Z,269.55
2023-02-11T01:54:25.516Z,277.56
2023-02-11T01:55:25.565Z,279.46
2023-02-11T01:56:25.498Z,285.57
2023-02-11T01:57:25.479Z,299.15
2023-02-11T01:58:25.494Z,304.45
2023-02-11T01:59:25.454Z,311.11
2023-02-11T02:00:25.428Z,310.82
2023-02-11T02:01:25.432Z,315.92
2023-02-11T02:02:25.424Z,316.54
2023-02-11T02:03:25.419Z,315.01
2023-02-11T02:04:25.376Z,319.94
2023-02-11T02:05:25.403Z,321.52
2023-02-11T02:06:25.364Z,319.01
2023-02-11T02:07:25.353Z,318.08
2023-02-11T02:08:26.159Z,317.46
2023-02-11T02:09:25.324Z,317.46
2023-02-11T02:10:25.364Z,313.50
2023-02-11T02:11:25.300Z,312.90
2023-02-11T02:12:25.292Z,308.18
2023-02-11T02:13:25.297Z,306.45
2023-02-11T02:14:25.253Z,297.52
2023-02-11T02:15:25.262Z,289.10
2023-02-11T02:16:25.272Z,297.25
2023-02-11T02:17:25.230Z,301.08
2023-02-11T02:18:25.224Z,307.60
2023-02-11T02:19:25.192Z,315.31
2023-02-11T02:20:25.189Z,318.39
2023-02-11T02:21:25.162Z,318.70
2023-02-11T02:22:25.149Z,315.31
2023-02-11T02:23:25.179Z,311.71
2023-02-11T02:24:25.155Z,304.45
2023-02-11T02:25:25.130Z,295.37
2023-02-11T02:26:25.101Z,292.46
2023-02-11T02:27:25.096Z,299.98
2023-02-11T02:28:25.173Z,303.60
2023-02-11T02:29:25.107Z,304.73
2023-02-11T02:30:25.066Z,298.61
2023-02-11T02:31:25.077Z,285.57
2023-02-11T02:32:25.020Z,281.39
2023-02-11T02:33:25.028Z,288.34
2023-02-11T02:34:25.009Z,290.90
2023-02-11T02:35:25.016Z,292.99
2023-02-11T02:36:24.969Z,294.04
2023-02-11T02:37:24.969Z,294.04
2023-02-11T02:38:24.955Z,295.64
2023-02-11T02:39:24.946Z,298.06
2023-02-11T02:40:24.962Z,303.88
2023-02-11T02:41:24.912Z,303.32
2023-02-11T02:42:24.899Z,307.89
2023-02-11T02:43:24.894Z,310.82
2023-02-11T02:44:24.870Z,313.80
2023-02-11T02:45:24.903Z,312.00
2023-02-11T02:46:24.916Z,317.77
2023-02-11T02:47:24.848Z,322.15
2023-02-11T02:48:24.836Z,319.01
2023-02-11T02:49:24.825Z,324.71
2023-02-11T02:50:24.828Z,325.03
2023-02-11T02:51:25.696Z,331.29
2023-02-11T02:52:24.772Z,315.62
2023-02-11T02:53:24.796Z,306.45
2023-02-11T02:54:24.758Z,304.17
2023-02-11T02:55:24.742Z,303.88
2023-02-11T02:56:24.724Z,311.71
2023-02-11T02:57:24.715Z,312.60
2023-02-11T02:58:24.704Z,323.43
2023-02-11T02:59:24.698Z,322.47
2023-02-11T03:00:24.676Z,323.75
2023-02-11T03:01:24.663Z,330.29
2023-02-11T03:02:24.679Z,335.37
2023-02-11T03:03:24.677Z,335.03
2023-02-11T03:04:24.627Z,332.64
2023-02-11T03:05:24.630Z,331.96
2023-02-11T03:06:24.616Z,323.11
2023-02-11T03:07:24.609Z,331.63
2023-02-11T03:08:24.581Z,333.66
2023-02-11T03:09:24.612Z,335.03
2023-02-11T03:10:24.545Z,329.95
2023-02-11T03:11:24.550Z,341.68
2023-02-11T03:12:24.522Z,340.26
2023-02-11T03:13:24.510Z,342.76
2023-02-11T03:14:24.535Z,349.35
2023-02-11T03:15:24.503Z,350.85
2023-02-11T03:16:24.565Z,353.51
2023-02-11T03:17:24.506Z,362.52
2023-02-11T03:18:24.449Z,358.55
2023-02-11T03:19:24.436Z,366.18
2023-02-11T03:20:24.448Z,360.52
2023-02-11T03:21:24.412Z,353.12
2023-02-11T03:22:24.425Z,353.51
2023-02-11T03:23:24.420Z,351.60
2023-02-11T03:24:24.395Z,352.74
2023-02-11T03:25:24.393Z,353.89
2023-02-11T03:26:24.386Z,356.98
2023-02-11T03:27:24.386Z,352.74
2023-02-11T03:28:24.403Z,341.32
2023-02-11T03:29:24.361Z,338.85
2023-02-11T03:30:24.334Z,348.23
2023-02-11T03:31:24.497Z,356.20
2023-02-11T03:32:24.345Z,364.14
2023-02-11T03:33:24.291Z,373.29
2023-02-11T03:34:24.269Z,371.59
2023-02-11T03:35:24.276Z,373.71
2023-02-11T03:36:24.267Z,378.91
2023-02-11T03:37:24.243Z,378.03
2023-02-11T03:38:24.234Z,383.34
2023-02-11T03:39:24.205Z,388.50
2023-02-11T03:40:24.182Z,383.12
2023-02-11T03:41:24.196Z,383.34
2023-02-11T03:42:24.144Z,388.05
2023-02-11T03:43:24.153Z,391.24
2023-02-11T03:44:24.132Z,393.56
2023-02-11T03:45:24.122Z,396.62
2023-02-11T03:46:24.188Z,385.79
2023-02-11T03:47:25.048Z,372.43
2023-02-11T03:48:24.112Z,364.95
2023-02-11T03:49:24.102Z,350.85
2023-02-11T03:50:24.091Z,340.97
2023-02-11T03:51:24.047Z,353.51
2023-02-11T03:52:24.024Z,355.81
2023-02-11T03:53:24.011Z,357.37
2023-02-11T03:54:24.009Z,355.81
2023-02-11T03:55:23.987Z,361.72
2023-02-11T03:56:23.987Z,362.92
2023-02-11T03:57:23.980Z,354.27
2023-02-11T03:58:23.952Z,344.93
2023-02-11T03:59:23.962Z,339.20
2023-02-11T04:00:23.920Z,338.50
2023-02-11T04:01:24.049Z,340.97
2023-02-11T04:02:23.902Z,341.68
2023-02-11T04:03:23.920Z,352.74
2023-02-11T04:04:23.908Z,348.98
2023-02-11T04:05:23.861Z,337.80
2023-02-11T04:06:23.888Z,323.75
2023-02-11T04:07:23.857Z,277.56
2023-02-11T04:08:23.835Z,287.83
2023-02-11T04:09:23.814Z,303.32
2023-02-11T04:10:23.834Z,315.01
2023-02-11T04:11:23.809Z,316.84
2023-02-11T04:12:23.797Z,299.15
2023-02-11T04:13:30.352Z,300.53
2023-02-11T04:14:23.758Z,307.02
2023-02-11T04:15:23.757Z,307.60
2023-02-11T04:16:23.791Z,302.48
2023-02-11T04:17:23.715Z,307.31
2023-02-11T04:18:23.719Z,301.08
2023-02-11T04:19:23.760Z,298.61
2023-02-11T04:20:23.718Z,287.58
2023-02-11T04:21:23.719Z,271.34
2023-02-11T04:22:23.693Z,270.89
2023-02-11T04:23:23.700Z,279.46
2023-02-11T04:24:23.684Z,285.57
2023-02-11T04:25:23.673Z,293.25
2023-02-11T04:26:23.610Z,299.70
2023-02-11T04:27:23.614Z,296.17
2023-02-11T04:28:23.659Z,293.25
2023-02-11T04:29:23.570Z,302.20
2023-02-11T04:30:23.551Z,304.17
2023-02-11T04:31:23.712Z,308.18
2023-02-11T04:32:23.532Z,312.30
2023-02-11T04:33:23.533Z,317.77
2023-02-11T04:34:23.522Z,275.23
2023-02-11T04:35:23.531Z,235.73
2023-02-11T04:36:23.486Z,240.94
2023-02-11T04:37:23.482Z,255.04
2023-02-11T04:38:23.480Z,257.25
2023-02-11T04:39:23.486Z,260.32
2023-02-11T04:40:23.478Z,258.27
2023-02-11T04:41:23.465Z,252.48
2023-02-11T04:42:23.419Z,261.15
2023-02-11T04:43:23.403Z,272.70
2023-02-11T04:44:23.382Z,269.11
2023-02-11T04:45:23.375Z,245.28
2023-02-11T04:46:23.461Z,225.33
2023-02-11T04:47:23.393Z,214.25
2023-02-11T04:48:23.362Z,209.58
2023-02-11T04:49:23.330Z,208.12
2023-02-11T04:50:23.325Z,230.09
2023-02-11T04:51:23.290Z,253.85
2023-02-11T04:52:23.295Z,272.93
2023-02-11T04:53:23.292Z,260.11
2023-02-11T04:54:23.260Z,246.58
2023-02-11T04:55:23.254Z,231.06
2023-02-11T04:56:23.236Z,230.74
2023-02-11T04:57:23.253Z,232.54
2023-02-11T04:58:23.239Z,253.46
2023-02-11T04:59:23.210Z,280.66
2023-02-11T05:00:23.279Z,299.98
2023-02-11T05:01:23.290Z,294.57
2023-02-11T05:02:23.169Z,286.57
2023-02-11T05:03:23.168Z,263.68
2023-02-11T05:04:23.227Z,248.45
2023-02-11T05:05:23.127Z,235.90
2023-02-11T05:06:23.169Z,230.09
2023-02-11T05:07:23.112Z,223.33
2023-02-11T05:08:23.103Z,218.70
2023-02-11T05:09:23.066Z,223.33
2023-02-11T05:10:23.057Z,213.00
2023-02-11T05:11:23.082Z,218.11
2023-02-11T05:12:23.064Z,224.87
2023-02-11T05:13:23.030Z,217.68
2023-02-11T05:14:23.017Z,202.07
2023-02-11T05:15:23.001Z,196.01
2023-02-11T05:16:23.066Z,202.07
2023-02-11T05:17:22.991Z,198.75
2023-02-11T05:18:23.016Z,203.58
2023-02-11T05:19:22.940Z,221.06
2023-02-11T05:20:22.937Z,235.22
2023-02-11T05:21:22.921Z,258.47
2023-02-11T05:22:22.940Z,280.42
2023-02-11T05:23:22.898Z,290.13
2023-02-11T05:24:22.931Z,264.11
2023-02-11T05:25:22.954Z,240.41
2023-02-11T05:26:22.895Z,229.28
2023-02-11T05:27:22.864Z,210.39
2023-02-11T05:28:22.862Z,203.83
2023-02-11T05:29:22.850Z,197.91
2023-02-11T05:30:22.840Z,202.82
2023-02-11T05:31:22.798Z,211.07
2023-02-11T05:32:22.781Z,208.51
2023-02-11T05:33:22.795Z,190.86
2023-02-11T05:34:22.826Z,193.00
2023-02-11T05:35:22.752Z,184.11
2023-02-11T05:36:22.747Z,180.12
2023-02-11T05:37:22.755Z,185.87
2023-02-11T05:38:22.731Z,185.45
2023-02-11T05:39:22.712Z,180.12
2023-02-11T05:40:22.686Z,175.93
2023-02-11T05:41:22.687Z,167.09
2023-02-11T05:42:22.657Z,157.88
2023-02-11T05:43:22.648Z,148.04
2023-02-11T05:44:22.670Z,141.85
2023-02-11T05:45:22.621Z,139.35
2023-02-11T05:46:22.690Z,135.27
2023-02-11T05:47:22.608Z,133.21
2023-02-11T05:48:22.584Z,126.62
2023-02-11T05:49:22.641Z,120.30
2023-02-11T05:50:22.557Z,114.89
2023-02-11T05:51:22.546Z,110.03
2023-02-11T05:52:22.551Z,104.76
2023-02-11T05:53:22.535Z,113.95
2023-02-11T05:54:22.522Z,110.76
2023-02-11T05:55:22.492Z,106.84
2023-02-11T05:56:22.541Z,101.81
2023-02-11T05:57:22.495Z,108.59
2023-02-11T05:58:22.471Z,116.50
2023-02-11T05:59:22.453Z,117.00
2023-02-11T06:00:22.478Z,125.66
2023-02-11T06:01:22.414Z,131.84
2023-02-11T06:02:22.527Z,140.89
2023-02-11T06:03:22.456Z,154.79
2023-02-11T06:04:22.437Z,165.42
2023-02-11T06:05:22.367Z,168.44
2023-02-11T06:06:22.360Z,163.31
2023-02-11T06:07:22.341Z,156.69
2023-02-11T06:08:22.364Z,157.14
2023-02-11T06:09:22.350Z,159.85
2023-02-11T06:10:22.378Z,165.26
2023-02-11T06:11:22.333Z,175.93
2023-02-11T06:12:22.284Z,184.11
2023-02-11T06:13:22.284Z,188.33
2023-02-11T06:14:22.279Z,183.50
2023-02-11T06:15:22.281Z,182.69
2023-02-11T06:16:22.343Z,186.61
2023-02-11T06:17:22.229Z,191.98
2023-02-11T06:18:22.252Z,204.98
2023-02-11T06:19:22.247Z,214.53
2023-02-11T06:20:22.211Z,202.82
2023-02-11T06:21:23.867Z,200.46
2023-02-11T06:22:22.208Z,199.36
2023-02-11T06:23:22.162Z,197.79
2023-02-11T06:24:44.308Z,187.25
2023-02-11T06:25:22.144Z,204.09
2023-02-11T06:26:22.116Z,212.44
2023-02-11T06:27:22.098Z,215.95
2023-02-11T06:28:22.152Z,213.41
2023-02-11T06:29:22.099Z,200.34
2023-02-11T06:30:22.081Z,199.85
2023-02-11T06:31:22.173Z,198.63
2023-02-11T06:32:42.288Z,197.67
2023-02-11T06:33:22.047Z,205.89
2023-02-11T06:34:22.042Z,198.03
2023-02-11T06:35:22.020Z,185.34
2023-02-11T06:36:22.005Z,200.95
2023-02-11T06:37:22.085Z,212.58
2023-02-11T06:38:21.957Z,214.68
2023-02-11T06:39:21.945Z,208.12
2023-02-11T06:40:21.939Z,197.43
2023-02-11T06:41:22.015Z,189.86
2023-02-11T06:42:21.921Z,196.72
2023-02-11T06:43:21.904Z,194.96
2023-02-11T06:44:21.903Z,184.72
2023-02-11T06:45:21.869Z,195.31
2023-02-11T06:46:21.930Z,185.55
2023-02-11T06:47:21.845Z,177.24
2023-02-11T06:48:21.837Z,188.77
2023-02-11T06:49:21.823Z,187.36
2023-02-11T06:50:21.816Z,194.15
2023-02-11T06:51:21.856Z,218.84
2023-02-11T06:52:21.788Z,237.96
2023-02-11T06:53:21.780Z,277.33
2023-02-11T06:54:21.786Z,296.71
2023-02-11T06:55:21.742Z,313.20
2023-02-11T06:56:21.759Z,309.64
2023-02-11T06:57:21.730Z,298.88
2023-02-11T06:58:21.724Z,261.78
2023-02-11T06:59:21.695Z,280.90
2023-02-11T07:00:21.683Z,295.64
2023-02-11T07:01:21.731Z,284.32
2023-02-11T07:02:21.678Z,294.57
2023-02-11T07:03:21.642Z,303.88
2023-02-11T07:04:21.642Z,318.70
2023-02-11T07:05:21.627Z,330.96
2023-02-11T07:06:21.650Z,351.23
2023-02-11T07:07:21.601Z,346.39
2023-02-11T07:08:21.599Z,344.93
2023-02-11T07:09:21.579Z,358.15
2023-02-11T07:10:21.603Z,343.12
2023-02-11T07:11:21.621Z,343.84
2023-02-11T07:12:21.548Z,323.43
2023-02-11T07:13:21.545Z,278.51
2023-02-11T07:14:21.530Z,234.21
2023-02-11T07:15:21.496Z,211.07
2023-02-11T07:16:21.575Z,236.93
2023-02-11T07:17:21.481Z,240.59
2023-02-11T07:18:21.492Z,232.38
2023-02-11T07:19:21.454Z,248.83
2023-02-11T07:20:21.489Z,269.55
2023-02-11T07:21:21.473Z,272.93
2023-02-11T07:22:21.423Z,267.13
2023-02-11T07:23:21.405Z,240.76
2023-02-11T07:24:21.402Z,229.93
2023-02-11T07:25:21.393Z,199.36
2023-02-11T07:26:21.372Z,210.39
2023-02-11T07:27:21.414Z,256.64
2023-02-11T07:28:21.531Z,264.32
2023-02-11T07:29:21.363Z,280.18
2023-02-11T07:30:21.334Z,312.00
2023-02-11T07:31:21.375Z,312.90
2023-02-11T07:32:21.311Z,299.70
2023-02-11T07:33:21.274Z,281.39
2023-02-11T07:34:21.341Z,268.45
2023-02-11T07:35:21.271Z,302.76
2023-02-11T07:36:21.255Z,336.41
2023-02-11T07:37:21.232Z,325.68
2023-02-11T07:38:21.238Z,321.52
2023-02-11T07:39:21.214Z,287.07
2023-02-11T07:40:21.188Z,271.79
2023-02-11T07:41:21.209Z,303.32
2023-02-11T07:42:21.172Z,301.92
2023-02-11T07:43:21.197Z,302.76
2023-02-11T07:44:21.139Z,303.32
2023-02-11T07:45:21.122Z,284.32
2023-02-11T07:46:21.148Z,257.65
2023-02-11T07:47:21.123Z,259.91
2023-02-11T07:48:21.097Z,258.47
2023-02-11T07:49:21.073Z,271.12
2023-02-11T07:50:21.081Z,281.63
2023-02-11T07:51:21.053Z,295.90
2023-02-11T07:52:21.060Z,311.11
2023-02-11T07:53:21.041Z,312.60
2023-02-11T07:54:21.045Z,322.47
2023-02-11T07:55:21.023Z,355.04
2023-02-11T07:56:21.068Z,358.15
2023-02-11T07:57:21.000Z,356.20
2023-02-11T07:58:20.977Z,313.80
2023-02-11T07:59:20.956Z,328.63
2023-02-11T08:00:21.316Z,329.62
2023-02-11T08:01:20.995Z,311.41
2023-02-11T08:02:20.977Z,286.82
2023-02-11T08:03:20.976Z,277.09
2023-02-11T08:04:21.024Z,304.45
2023-02-11T08:05:20.935Z,320.57
2023-02-11T08:06:20.890Z,328.30
2023-02-11T08:07:20.880Z,351.98
2023-02-11T08:08:20.857Z,366.59
2023-02-11T08:09:20.823Z,395.20
2023-02-11T08:10:20.835Z,416.51
2023-02-11T08:11:20.797Z,430.27
2023-02-11T08:12:20.818Z,420.73
2023-02-11T08:13:20.809Z,426.95
2023-02-11T08:14:20.762Z,447.06
2023-02-11T08:15:20.814Z,454.71
2023-02-11T08:16:20.865Z,444.07
2023-02-11T08:17:20.767Z,452.24
2023-02-11T08:18:20.725Z,434.77
2023-02-11T08:19:20.700Z,431.67
2023-02-11T08:20:20.738Z,431.67
2023-02-11T08:21:20.754Z,439.38
2023-02-11T08:22:20.671Z,427.77
2023-02-11T08:23:20.644Z,404.83
2023-02-11T08:24:20.647Z,384.90
2023-02-11T08:25:20.626Z,406.32
2023-02-11T08:26:20.658Z,402.87
2023-02-11T08:27:20.608Z,406.82
2023-02-11T08:28:20.649Z,414.95
2023-02-11T08:29:20.574Z,422.61
2023-02-11T08:30:20.578Z,399.72
2023-02-11T08:31:20.754Z,371.17
2023-02-11T08:32:20.570Z,380.27
2023-02-11T08:33:20.517Z,390.33
2023-02-11T08:34:20.543Z,381.36
2023-02-11T08:35:20.511Z,359.73
2023-02-11T08:36:20.488Z,370.75
2023-02-11T08:37:20.470Z,366.18
2023-02-11T08:38:20.465Z,387.37
2023-02-11T08:39:21.032Z,399.00
2023-02-11T08:40:20.435Z,382.24
2023-02-11T08:41:20.420Z,356.20
2023-02-11T08:42:20.424Z,316.23
2023-02-11T08:43:20.395Z,315.92
2023-02-11T08:44:20.417Z,336.41
2023-02-11T08:45:20.386Z,369.07
2023-02-11T08:46:20.492Z,364.95
2023-02-11T08:47:20.348Z,356.20
2023-02-11T08:48:20.335Z,349.35
2023-02-11T08:49:20.332Z,346.02
2023-02-11T08:50:20.319Z,373.71
2023-02-11T08:51:20.304Z,394.26
2023-02-11T08:52:20.291Z,353.89
2023-02-11T08:53:20.492Z,369.07
2023-02-11T08:54:20.312Z,386.47
2023-02-11T08:55:20.250Z,393.80
2023-02-11T08:56:20.235Z,418.08
2023-02-11T08:57:20.223Z,423.68
2023-02-11T08:58:20.239Z,459.11
2023-02-11T08:59:20.226Z,445.27
2023-02-11T09:00:20.181Z,385.57
2023-02-11T09:01:22.734Z,355.81
2023-02-11T09:02:20.244Z,331.63
2023-02-11T09:03:20.153Z,341.32
2023-02-11T09:04:20.164Z,336.75
2023-02-11T09:05:20.175Z,364.95
2023-02-11T09:06:20.156Z,408.07
2023-02-11T09:07:20.097Z,412.12
2023-02-11T09:08:20.096Z,420.20
2023-02-11T09:09:20.087Z,432.51
2023-02-11T09:10:20.058Z,455.65
2023-02-11T09:11:20.057Z,444.07
2023-02-11T09:12:20.054Z,433.07
2023-02-11T09:13:20.033Z,430.27
2023-02-11T09:14:20.021Z,413.40
2023-02-11T09:15:20.033Z,397.33
2023-02-11T09:16:19.998Z,385.57
2023-02-11T09:17:19.973Z,390.33
2023-02-11T09:18:20.012Z,395.20
2023-02-11T09:19:19.961Z,413.66
2023-02-11T09:20:19.953Z,410.34
2023-02-11T09:21:19.930Z,435.34
2023-02-11T09:22:19.906Z,458.80
2023-02-11T09:23:19.899Z,456.90
2023-02-11T09:24:19.891Z,470.83
2023-02-11T09:25:19.892Z,478.28
2023-02-11T09:26:19.859Z,482.45
2023-02-11T09:27:19.853Z,449.18
2023-02-11T09:28:19.861Z,439.38
2023-02-11T09:29:19.827Z,469.83
2023-02-11T09:30:19.812Z,479.32
2023-02-11T09:31:19.972Z,489.20
2023-02-11T09:32:19.787Z,516.59
2023-02-11T09:33:19.765Z,544.98
2023-02-11T09:34:19.771Z,500.25
2023-02-11T09:35:19.755Z,484.56
2023-02-11T09:36:19.745Z,450.70
2023-02-11T09:37:19.724Z,461.66
2023-02-11T09:38:19.717Z,469.16
2023-02-11T09:39:19.693Z,476.57
2023-02-11T09:40:19.712Z,455.96
2023-02-11T09:41:19.662Z,429.99
2023-02-11T09:42:19.652Z,411.35
2023-02-11T09:43:19.665Z,434.49
2023-02-11T09:44:19.631Z,448.57
2023-02-11T09:45:19.636Z,467.18
2023-02-11T09:46:19.648Z,475.89
2023-02-11T09:47:19.592Z,490.28
2023-02-11T09:48:19.575Z,485.27
2023-02-11T09:49:19.558Z,534.89
2023-02-11T09:50:19.568Z,507.51
2023-02-11T09:51:19.558Z,551.32
2023-02-11T09:52:19.532Z,547.23
2023-02-11T09:53:19.513Z,513.79
2023-02-11T09:54:19.500Z,440.83
2023-02-11T09:55:19.484Z,356.20
2023-02-11T09:56:19.508Z,326.66
2023-02-11T09:57:28.176Z,323.11
2023-02-11T09:58:19.457Z,334.34
2023-02-11T09:59:19.445Z,360.13
2023-02-11T10:00:19.448Z,381.58
2023-02-11T10:01:21.047Z,393.80
2023-02-11T10:02:19.404Z,423.14
2023-02-11T10:03:19.396Z,457.53
2023-02-11T10:04:19.476Z,490.28
2023-02-11T10:05:19.366Z,485.27
2023-02-11T10:06:19.352Z,463.92
2023-02-11T10:07:19.334Z,512.60
2023-02-11T10:08:19.350Z,549.04
2023-02-11T10:09:19.326Z,547.68
2023-02-11T10:10:19.291Z,578.18
2023-02-11T10:11:30.847Z,582.75
2023-02-11T10:12:19.273Z,639.40
2023-02-11T10:13:19.270Z,661.03
2023-02-11T10:14:25.745Z,686.30
2023-02-11T10:15:19.244Z,694.18
2023-02-11T10:16:19.232Z,719.76
2023-02-11T10:17:19.206Z,753.54
2023-02-11T10:18:19.190Z,760.43
2023-02-11T10:19:19.185Z,745.61
2023-02-11T10:20:19.172Z,748.87
2023-02-11T10:21:19.170Z,756.97
2023-02-11T10:22:19.147Z,734.07
2023-02-11T10:23:19.141Z,734.88
2023-02-11T10:24:19.119Z,691.30
2023-02-11T10:25:19.114Z,675.82
2023-02-11T10:26:19.099Z,666.33
2023-02-11T10:27:19.091Z,624.38
2023-02-11T10:28:19.166Z,620.29
2023-02-11T10:29:19.067Z,596.35
2023-02-11T10:30:19.048Z,591.57
2023-02-11T10:31:19.163Z,650.67
2023-02-11T10:32:19.019Z,677.20
2023-02-11T10:33:19.004Z,694.91
2023-02-11T10:34:18.994Z,724.47
2023-02-11T10:35:18.979Z,712.81
2023-02-11T10:36:18.965Z,715.88
2023-02-11T10:37:18.971Z,701.52
2023-02-11T10:38:18.947Z,679.97
2023-02-11T10:39:18.943Z,675.14
2023-02-11T10:40:18.930Z,678.59
2023-02-11T10:41:18.922Z,641.87
2023-02-11T10:42:18.892Z,567.32
2023-02-11T10:43:18.885Z,582.24
2023-02-11T10:44:18.870Z,520.64
2023-02-11T10:45:18.852Z,492.46
2023-02-11T10:46:18.875Z,572.70
2023-02-11T10:47:18.835Z,636.95
2023-02-11T10:48:18.805Z,672.40
2023-02-11T10:49:18.813Z,684.18
2023-02-11T10:50:18.882Z,719.76
2023-02-11T10:51:18.773Z,724.47
2023-02-11T10:52:18.813Z,706.74
2023-02-11T10:53:18.746Z,692.02
2023-02-11T10:54:18.736Z,730.84
2023-02-11T10:55:18.736Z,752.69
2023-02-11T10:56:18.717Z,789.32
2023-02-11T10:57:18.719Z,814.45
2023-02-11T10:58:18.690Z,829.69
2023-02-11T10:59:21.405Z,793.56
2023-02-11T11:00:18.755Z,812.46
2023-02-11T11:01:24.803Z,839.12
2023-02-11T11:02:18.640Z,802.17
2023-02-11T11:03:18.645Z,723.68
2023-02-11T11:04:18.631Z,646.24
2023-02-11T11:05:18.619Z,586.87
2023-02-11T11:06:18.584Z,627.32
2023-02-11T11:07:18.581Z,605.59
2023-02-11T11:08:18.572Z,600.66
2023-02-11T11:09:18.574Z,651.95
2023-02-11T11:10:18.539Z,646.87
2023-02-11T11:11:18.535Z,615.70
2023-02-11T11:12:18.512Z,530.20
2023-02-11T11:13:18.506Z,431.11
2023-02-11T11:14:18.476Z,476.91
2023-02-11T11:15:18.480Z,525.17
2023-02-11T11:16:18.538Z,510.63
2023-02-11T11:17:18.441Z,553.61
2023-02-11T11:18:22.590Z,595.82
2023-02-11T11:19:18.430Z,646.87
2023-02-11T11:20:18.405Z,692.74
2023-02-11T11:21:18.392Z,743.10
2023-02-11T11:22:18.378Z,747.61
2023-02-11T11:23:18.391Z,745.52
2023-02-11T11:24:18.357Z,705.99
2023-02-11T11:25:18.351Z,694.18
2023-02-11T11:26:18.348Z,707.49
2023-02-11T11:27:18.352Z,718.20
2023-02-11T11:28:18.330Z,674.45
2023-02-11T11:29:18.311Z,640.02
2023-02-11T11:30:18.279Z,635.12
2023-02-11T11:31:18.452Z,669.69
2023-02-11T11:32:20.281Z,733.26
2023-02-11T11:33:18.251Z,743.94
2023-02-11T11:34:18.226Z,708.25
2023-02-11T11:35:18.229Z,718.20
2023-02-11T11:36:18.245Z,703.00
2023-02-11T11:37:18.201Z,741.45
2023-02-11T11:38:18.178Z,689.14
2023-02-11T11:39:18.177Z,626.14
2023-02-11T11:40:18.148Z,625.55
2023-02-11T11:41:18.136Z,643.11
2023-02-11T11:42:18.121Z,733.26
2023-02-11T11:43:18.112Z,649.40
2023-02-11T11:44:18.114Z,521.05
2023-02-11T11:45:18.094Z,490.65
2023-02-11T11:46:18.081Z,476.91
2023-02-11T11:47:18.054Z,594.22
2023-02-11T11:48:18.043Z,668.34
2023-02-11T11:49:18.052Z,676.51
2023-02-11T11:50:20.765Z,583.26
2023-02-11T11:51:18.011Z,566.36
2023-02-11T11:52:17.985Z,557.80
2023-02-11T11:53:17.976Z,555.93
2023-02-11T11:54:17.966Z,518.20
2023-02-11T11:55:17.947Z,571.22
2023-02-11T11:56:17.950Z,673.09
2023-02-11T11:57:17.942Z,747.61
2023-02-11T11:58:17.936Z,719.76
2023-02-11T11:59:17.924Z,791.20
2023-02-11T12:00:17.906Z,824.04
2023-02-11T12:01:17.891Z,815.95
2023-02-11T12:02:17.941Z,880.21
2023-02-11T12:03:17.910Z,913.46
2023-02-11T12:04:17.860Z,920.41
2023-02-11T12:05:17.830Z,931.37
2023-02-11T12:06:17.832Z,923.61
2023-02-11T12:07:17.804Z,921.69
2023-02-11T12:08:17.832Z,933.33
2023-02-11T12:09:17.778Z,888.44
2023-02-11T12:10:17.777Z,852.56
2023-02-11T12:11:17.753Z,948.64
2023-02-11T12:12:17.758Z,1030.21
2023-02-11T12:13:17.732Z,1030.21
2023-02-11T12:14:17.716Z,1118.59
2023-02-11T12:15:17.714Z,1166.67
2023-02-11T12:16:17.715Z,1113.90
2023-02-11T12:17:17.672Z,1112.97
2023-02-11T12:18:17.660Z,1083.94
2023-02-11T12:19:17.654Z,1075.18
2023-02-11T12:20:17.636Z,1074.31
2023-02-11T12:21:17.620Z,1126.16
2023-02-11T12:22:17.616Z,1188.56
2023-02-11T12:23:17.601Z,1181.17
2023-02-11T12:24:17.625Z,1239.52
2023-02-11T12:25:17.578Z,1258.28
2023-02-11T12:26:17.573Z,1251.18
2023-02-11T12:27:17.544Z,1217.95
2023-02-11T12:28:17.574Z,1015.27